createdAt,value
2022-11-18T05:52:34.825Z,20.00
2022-11-18T05:55:15.579Z,20.00
2022-11-18T05:57:51.251Z,19.90
2022-11-18T06:00:27.422Z,19.90
2022-11-18T06:03:03.615Z,20.00
2022-11-18T06:05:39.760Z,20.00
2022-11-18T06:08:21.034Z,20.00
2022-11-18T06:11:13.769Z,20.00
2022-11-18T06:13:53.609Z,20.00
2022-11-18T06:16:37.853Z,20.10
2022-11-18T06:19:19.735Z,19.90
2022-11-18T06:21:56.224Z,19.80
2022-11-18T06:24:34.209Z,19.70
2022-11-18T06:27:12.301Z,19.60
2022-11-18T06:29:49.105Z,19.60
2022-11-18T06:32:24.781Z,19.70
2022-11-18T06:35:00.329Z,19.70
2022-11-18T06:37:35.744Z,19.70
2022-11-18T06:40:13.539Z,19.70
2022-11-18T06:43:07.971Z,19.80
2022-11-18T06:46:08.895Z,19.70
2022-11-18T06:48:45.904Z,19.70
2022-11-18T06:51:21.465Z,19.70
2022-11-18T06:53:58.309Z,19.70
2022-11-18T06:56:34.049Z,19.70
2022-11-18T06:59:12.075Z,19.60
2022-11-18T07:01:48.156Z,19.60
2022-11-18T07:04:23.895Z,19.70
2022-11-18T07:06:59.361Z,19.60
2022-11-18T07:09:35.352Z,19.60
2022-11-18T07:12:11.489Z,19.50
2022-11-18T07:14:50.001Z,19.50
2022-11-18T07:17:26.319Z,19.60
2022-11-18T07:20:02.499Z,19.60
2022-11-18T07:22:38.294Z,19.60
2022-11-18T07:25:14.892Z,19.60
2022-11-18T07:27:51.663Z,19.50
2022-11-18T07:30:30.084Z,19.40
2022-11-18T07:33:05.684Z,19.30
2022-11-18T07:35:41.458Z,19.30
2022-11-18T07:38:17.582Z,19.30
2022-11-18T07:40:53.449Z,19.40
2022-11-18T07:43:28.645Z,19.50
2022-11-18T07:46:16.206Z,19.50
2022-11-18T07:48:53.394Z,19.50
2022-11-18T07:51:34.867Z,19.50
2022-11-18T07:54:14.533Z,19.50
2022-11-18T07:56:50.988Z,19.50
2022-11-18T07:59:26.693Z,19.50
2022-11-18T08:02:04.110Z,19.60
2022-11-18T08:04:41.407Z,19.60
2022-11-18T08:07:17.841Z,19.60
2022-11-18T08:09:54.163Z,19.60
2022-11-18T08:12:32.592Z,19.60
2022-11-18T08:15:08.546Z,19.60
2022-11-18T08:17:46.235Z,19.50
2022-11-18T08:20:21.647Z,19.40
2022-11-18T08:22:58.210Z,19.40
2022-11-18T08:25:34.025Z,19.40
2022-11-18T08:28:09.988Z,19.30
2022-11-18T08:30:46.721Z,19.30
2022-11-18T08:33:24.033Z,19.30
2022-11-18T08:36:00.516Z,19.30
2022-11-18T08:38:36.566Z,19.30
2022-11-18T08:41:18.961Z,19.30
2022-11-18T08:43:55.007Z,19.40
2022-11-18T08:46:32.295Z,19.40
2022-11-18T08:49:31.094Z,19.30
2022-11-18T08:52:16.729Z,19.30
2022-11-18T08:55:02.741Z,19.30
2022-11-18T08:58:06.051Z,19.40
2022-11-18T09:01:05.411Z,19.30
2022-11-18T09:04:28.349Z,19.30
2022-11-18T09:07:20.166Z,19.30
2022-11-18T09:10:13.422Z,19.20
2022-11-18T09:12:50.187Z,19.20
2022-11-18T09:15:37.976Z,19.20
2022-11-18T09:18:37.800Z,19.10
2022-11-18T09:21:15.259Z,19.10
2022-11-18T09:23:53.596Z,19.10
2022-11-18T09:26:33.355Z,19.10
2022-11-18T09:29:10.273Z,19.10
2022-11-18T09:31:45.845Z,19.10
2022-11-18T09:34:21.694Z,19.20
2022-11-18T09:36:58.470Z,19.20
2022-11-18T09:39:42.908Z,19.10
2022-11-18T09:42:33.348Z,19.10
2022-11-18T09:45:30.175Z,19.10
2022-11-18T09:48:45.099Z,19.00
2022-11-18T09:51:20.655Z,19.10
2022-11-18T09:53:56.784Z,19.10
2022-11-18T09:56:35.011Z,19.10
2022-11-18T09:59:11.671Z,19.00
2022-11-18T10:01:49.228Z,19.00
2022-11-18T10:04:26.299Z,19.00
2022-11-18T10:07:04.492Z,19.00
2022-11-18T10:09:45.499Z,18.90
2022-11-18T10:12:31.875Z,18.90
2022-11-18T10:15:22.681Z,18.90
2022-11-18T10:18:11.318Z,18.90
2022-11-18T10:21:06.713Z,18.90
2022-11-18T10:24:00.542Z,18.90
2022-11-18T10:26:55.308Z,18.80
2022-11-18T10:29:46.537Z,18.70
2022-11-18T10:32:57.625Z,18.70
2022-11-18T10:35:36.262Z,18.70
2022-11-18T10:38:21.848Z,18.60
2022-11-18T10:41:05.126Z,18.60
2022-11-18T10:43:53.181Z,18.60
2022-11-18T10:46:36.177Z,18.60
2022-11-18T10:49:22.406Z,18.60
2022-11-18T10:52:14.886Z,18.60
2022-11-18T10:54:50.986Z,18.60
2022-11-18T10:57:30.054Z,18.60
2022-11-18T11:00:06.525Z,18.60
2022-11-18T11:02:46.814Z,18.60
2022-11-18T11:05:26.722Z,18.60
2022-11-18T11:08:35.054Z,18.50
2022-11-18T11:11:06.184Z,18.50
2022-11-18T11:13:48.343Z,18.40
2022-11-18T11:16:26.614Z,18.50
2022-11-18T11:19:08.034Z,18.50
2022-11-18T11:21:44.005Z,18.50
2022-11-18T11:24:20.994Z,18.40
2022-11-18T11:30:23.834Z,18.40
2022-11-18T11:33:32.768Z,18.40
2022-11-18T11:36:33.164Z,18.40
2022-11-18T11:39:23.655Z,18.30
2022-11-18T11:42:10.093Z,18.30
2022-11-18T11:44:59.241Z,18.30
2022-11-18T11:47:57.503Z,18.30
2022-11-18T11:51:01.951Z,18.30
2022-11-18T11:54:26.056Z,18.30
2022-11-18T11:57:08.534Z,18.30
2022-11-18T11:59:52.994Z,18.20
2022-11-18T12:03:07.373Z,18.20
2022-11-18T12:05:44.872Z,18.20
2022-11-18T12:08:25.106Z,18.20
2022-11-18T12:11:09.142Z,18.20
2022-11-18T12:13:53.875Z,18.10
2022-11-18T12:16:38.263Z,18.10
2022-11-18T12:19:16.845Z,18.10
2022-11-18T12:22:07.054Z,18.10
2022-11-18T12:24:44.765Z,18.10
2022-11-18T12:28:02.817Z,18.10
2022-11-18T12:30:38.129Z,18.00
2022-11-18T12:33:22.500Z,18.10
2022-11-18T12:35:59.300Z,18.10
2022-11-18T12:38:35.965Z,18.00
2022-11-18T12:42:04.967Z,18.10
2022-11-18T12:44:43.468Z,18.00
2022-11-18T12:47:21.059Z,18.00
2022-11-18T12:50:15.128Z,18.10
2022-11-18T12:52:59.010Z,18.10
2022-11-18T12:55:43.478Z,18.10
2022-11-18T12:58:30.964Z,18.10
2022-11-18T13:01:18.328Z,18.10
2022-11-18T13:03:54.650Z,18.10
2022-11-18T13:06:34.299Z,18.00
2022-11-18T13:09:17.930Z,18.00
2022-11-18T13:11:57.114Z,17.90
2022-11-18T13:14:50.839Z,17.90
2022-11-18T13:17:52.075Z,17.90
2022-11-18T13:20:33.022Z,17.90
2022-11-18T13:23:39.561Z,17.90
2022-11-18T13:26:22.728Z,17.90
2022-11-18T13:29:23.912Z,17.90
2022-11-18T13:32:12.745Z,17.90
2022-11-18T13:34:53.462Z,17.90
2022-11-18T13:37:31.122Z,17.90
2022-11-18T13:40:07.505Z,17.90
2022-11-18T13:42:50.879Z,17.90
2022-11-18T13:45:28.691Z,17.90
2022-11-18T13:48:06.633Z,17.80
2022-11-18T13:50:45.314Z,17.70
2022-11-18T13:53:34.112Z,17.70
2022-11-18T13:56:12.274Z,17.60
2022-11-18T13:59:18.628Z,17.60
2022-11-18T14:01:45.382Z,17.60
2022-11-18T14:04:27.875Z,17.50
2022-11-18T14:07:40.276Z,17.50
2022-11-18T14:10:21.012Z,17.60
2022-11-18T14:13:05.969Z,17.50
2022-11-18T14:15:44.171Z,17.50
2022-11-18T14:18:27.627Z,17.50
2022-11-18T14:21:04.080Z,17.50
2022-11-18T14:23:41.874Z,17.50
2022-11-18T14:26:31.368Z,17.50
2022-11-18T14:29:09.505Z,17.50
2022-11-18T14:31:47.043Z,17.40
2022-11-18T14:34:29.563Z,17.40
2022-11-18T14:37:05.319Z,17.40
2022-11-18T14:39:40.689Z,17.40
2022-11-18T14:42:19.939Z,17.40
2022-11-18T14:44:55.589Z,17.50
2022-11-18T14:47:33.839Z,17.40
2022-11-18T14:50:14.546Z,17.40
2022-11-18T14:52:50.561Z,17.40
2022-11-18T14:55:26.747Z,17.40
2022-11-18T14:58:28.637Z,17.50
2022-11-18T15:01:38.428Z,17.40
2022-11-18T15:04:47.571Z,17.30
2022-11-18T15:07:55.530Z,17.30
2022-11-18T15:11:04.501Z,17.30
2022-11-18T15:14:14.370Z,17.30
2022-11-18T15:17:23.443Z,17.20
2022-11-18T15:20:33.440Z,17.20
2022-11-18T15:23:25.719Z,17.20
2022-11-18T15:26:04.394Z,17.20
2022-11-18T15:28:40.422Z,17.20
2022-11-18T15:31:18.416Z,17.20
2022-11-18T15:33:54.442Z,17.10
2022-11-18T15:36:32.225Z,17.10
2022-11-18T15:39:08.820Z,17.10
2022-11-18T15:41:46.011Z,17.10
2022-11-18T15:44:24.612Z,17.10
2022-11-18T15:47:01.878Z,17.10
2022-11-18T15:49:37.874Z,17.10
2022-11-18T15:52:14.845Z,17.00
2022-11-18T15:54:52.315Z,17.00
2022-11-18T15:57:28.387Z,17.00
2022-11-18T16:00:04.121Z,16.90
2022-11-18T16:02:49.409Z,16.90
2022-11-18T16:05:25.402Z,16.90
2022-11-18T16:08:01.315Z,17.00
2022-11-18T16:10:52.626Z,17.00
2022-11-18T16:13:28.413Z,17.00
2022-11-18T16:16:03.680Z,17.00
2022-11-18T16:18:41.486Z,17.00
2022-11-18T16:21:17.664Z,17.00
2022-11-18T16:24:00.814Z,17.00
2022-11-18T16:26:36.942Z,16.90
2022-11-18T16:29:13.380Z,16.90
2022-11-18T16:31:52.567Z,17.00
2022-11-18T16:34:30.655Z,17.00
2022-11-18T16:37:06.857Z,16.90
2022-11-18T16:39:42.710Z,16.90
2022-11-18T16:42:19.034Z,16.90
2022-11-18T16:44:57.886Z,16.90
2022-11-18T16:47:33.755Z,16.80
2022-11-18T16:50:12.382Z,16.80
2022-11-18T16:52:47.842Z,16.70
2022-11-18T16:55:24.531Z,16.70
2022-11-18T16:58:00.119Z,16.80
2022-11-18T17:01:09.343Z,16.80
2022-11-18T17:03:33.042Z,16.80
2022-11-18T17:06:11.206Z,16.70
2022-11-18T17:08:46.594Z,16.70
2022-11-18T17:11:22.703Z,16.80
2022-11-18T17:13:59.717Z,16.80
2022-11-18T17:16:38.675Z,16.80
2022-11-18T17:19:17.867Z,16.80
2022-11-18T17:21:56.262Z,16.80
2022-11-18T17:24:32.509Z,16.80
2022-11-18T17:27:08.477Z,16.80
2022-11-18T17:29:44.448Z,16.80
2022-11-18T17:32:19.870Z,16.70
2022-11-18T17:34:55.675Z,16.70
2022-11-18T17:37:35.549Z,16.60
2022-11-18T17:40:12.658Z,16.60
2022-11-18T17:42:47.930Z,16.60
2022-11-18T17:45:24.087Z,16.60
2022-11-18T17:48:00.583Z,16.60
2022-11-18T17:50:36.748Z,16.60
2022-11-18T17:53:15.920Z,16.60
2022-11-18T17:55:56.405Z,16.70
2022-11-18T17:58:36.049Z,16.70
2022-11-18T18:01:14.521Z,16.60
2022-11-18T18:03:50.364Z,16.60
2022-11-18T18:06:25.797Z,16.60
2022-11-18T18:09:06.985Z,16.50
2022-11-18T18:11:43.005Z,16.50
2022-11-18T18:14:17.986Z,16.50
2022-11-18T18:16:59.337Z,16.50
2022-11-18T18:19:35.120Z,16.50
2022-11-18T18:22:10.740Z,16.50
2022-11-18T18:24:49.389Z,16.50
2022-11-18T18:27:25.488Z,16.50
2022-11-18T18:30:00.808Z,16.50
2022-11-18T18:32:37.130Z,16.50
2022-11-18T18:35:13.514Z,16.50
2022-11-18T18:37:49.537Z,16.50
2022-11-18T18:40:27.503Z,16.50
2022-11-18T18:43:03.433Z,16.50
2022-11-18T18:45:54.501Z,16.50
2022-11-18T18:48:30.447Z,16.50
2022-11-18T18:51:09.802Z,16.40
2022-11-18T18:53:45.864Z,16.40
2022-11-18T18:56:25.187Z,16.40
2022-11-18T18:59:02.798Z,16.40
2022-11-18T19:01:38.387Z,16.40
2022-11-18T19:04:17.691Z,16.40
2022-11-18T19:06:59.475Z,16.40
2022-11-18T19:09:36.625Z,16.50
2022-11-18T19:12:39.803Z,16.60
2022-11-18T19:15:17.254Z,16.70
2022-11-18T19:17:53.597Z,16.90
2022-11-18T19:20:38.407Z,17.00
2022-11-18T19:23:15.079Z,17.20
2022-11-18T19:25:50.570Z,17.30
2022-11-18T19:28:28.649Z,17.40
2022-11-18T19:31:05.769Z,17.50
2022-11-18T19:33:41.484Z,17.70
2022-11-18T19:36:17.045Z,17.70
2022-11-18T19:38:55.490Z,17.90
2022-11-18T19:41:30.851Z,18.00
2022-11-18T19:44:08.367Z,18.10
2022-11-18T19:46:44.550Z,18.20
2022-11-18T19:49:20.644Z,18.20
2022-11-18T19:51:56.881Z,18.20
2022-11-18T19:54:32.896Z,18.30
2022-11-18T19:57:08.344Z,18.30
2022-11-18T19:59:46.783Z,18.40
2022-11-18T20:02:23.850Z,18.50
2022-11-18T20:05:14.549Z,18.50
2022-11-18T20:07:49.832Z,18.50
2022-11-18T20:10:25.829Z,18.50
2022-11-18T20:13:01.132Z,18.40
2022-11-18T20:15:38.821Z,18.60
2022-11-18T20:18:14.521Z,18.70
2022-11-18T20:20:49.781Z,18.70
2022-11-18T20:26:08.173Z,18.90
2022-11-18T20:28:44.559Z,19.10
2022-11-18T20:31:23.804Z,19.00
2022-11-18T20:34:00.426Z,19.20
2022-11-18T20:36:37.233Z,19.30
2022-11-18T20:39:17.419Z,19.20
2022-11-18T20:42:08.448Z,19.30
2022-11-18T20:44:43.888Z,19.40
2022-11-18T21:13:43.376Z,20.10
2022-11-18T21:16:19.375Z,20.00
2022-11-18T21:18:57.421Z,20.00
2022-11-18T21:21:54.099Z,20.00
2022-11-18T21:24:32.694Z,20.10
2022-11-18T21:27:09.587Z,20.20
2022-11-18T21:37:39.207Z,20.40
2022-11-18T23:06:36.943Z,20.80
2022-11-18T23:09:16.533Z,20.90
2022-11-18T23:12:08.489Z,20.80
2022-11-18T23:35:41.780Z,20.90
2022-11-18T23:38:18.323Z,21.00
2022-11-18T23:41:00.164Z,21.00
2022-11-18T23:54:02.062Z,21.10
